IAH weather

George Bush Intercontinental Houston Airport
Houston, Texas, United States

Public forecast

Using degrees Fahrenheit for public forecast. Weather courtesy of forecast.io.

METAR (pilot weather report)

Retrieved 2019/04/21 11:53 UTC (43 minutes ago):

KIAH 211153Z 16003KT 10SM FEW100 14/13 A3002 RMK AO2 SLP166 T01390133 10150 20122 53008

TAF (pilot weather forecast)

Retrieved 2019/04/21 12:30 UTC (6 minutes ago):

TAF KIAH 211127Z 2112/2218 15004KT P6SM SKC FM211500 16012G19KT P6SM SKC FM220200 15008KT P6SM SCT050 FM221500 15014KT P6SM SCT025